createdAt,value
2019-03-13T00:00:44.154Z,99637.21
2019-03-13T00:02:52.515Z,99636.80
2019-03-13T00:04:59.182Z,99631.62
2019-03-13T00:07:05.873Z,99629.02
2019-03-13T00:09:13.152Z,99633.25
2019-03-13T00:11:19.817Z,99629.84
2019-03-13T00:13:26.510Z,99622.54
2019-03-13T00:15:33.275Z,99624.58
2019-03-13T00:17:39.946Z,99623.69
2019-03-13T00:19:46.645Z,99626.28
2019-03-13T00:21:53.308Z,99621.98
2019-03-13T00:23:59.977Z,99618.06
2019-03-13T00:26:07.050Z,99610.28
2019-03-13T00:28:13.797Z,99611.42
2019-03-13T00:30:20.524Z,99604.87
2019-03-13T00:32:27.216Z,99598.31
2019-03-13T00:34:33.883Z,99591.91
2019-03-13T00:36:40.565Z,99594.09
2019-03-13T00:38:47.261Z,99591.09
2019-03-13T00:40:53.930Z,99584.20
2019-03-13T00:43:00.587Z,99573.01
2019-03-13T00:45:14.474Z,99570.08
2019-03-13T00:47:21.212Z,99567.93
2019-03-13T00:49:27.878Z,99563.12
2019-03-13T00:51:36.995Z,99565.64
2019-03-13T00:53:42.956Z,99551.64
2019-03-13T00:55:49.625Z,99551.70
2019-03-13T00:57:56.323Z,99541.34
2019-03-13T01:00:03.262Z,99541.81
2019-03-13T01:02:12.059Z,99541.81
2019-03-13T01:04:20.401Z,99538.81
2019-03-13T01:06:28.715Z,99541.55
2019-03-13T01:08:35.383Z,99535.88
2019-03-13T01:10:42.148Z,99532.99
2019-03-13T01:12:48.810Z,99524.47
2019-03-13T01:14:55.536Z,99523.91
2019-03-13T01:17:02.302Z,99520.09
2019-03-13T01:19:08.959Z,99512.24
2019-03-13T01:21:15.627Z,99513.27
2019-03-13T01:23:22.324Z,99514.91
2019-03-13T01:25:29.000Z,99511.91
2019-03-13T01:27:35.673Z,99502.83
2019-03-13T01:29:42.360Z,99506.31
2019-03-13T01:32:06.891Z,99495.45
2019-03-13T01:34:23.965Z,99492.80
2019-03-13T01:36:30.649Z,99489.45
2019-03-13T01:38:37.359Z,99485.70
2019-03-13T01:40:43.985Z,99482.63
2019-03-13T01:42:50.693Z,99482.08
2019-03-13T01:44:57.416Z,99485.08
2019-03-13T01:47:04.099Z,99474.30
2019-03-13T01:49:10.776Z,99471.77
2019-03-13T01:51:17.555Z,99465.36
2019-03-13T01:53:24.288Z,99464.14
2019-03-13T01:55:30.996Z,99467.61
2019-03-13T01:57:37.662Z,99463.25
2019-03-13T01:59:44.326Z,99465.57
2019-03-13T02:01:51.023Z,99454.38
2019-03-13T02:03:57.821Z,99459.02
2019-03-13T02:06:04.488Z,99453.35
2019-03-13T02:08:11.179Z,99456.25
2019-03-13T02:10:17.862Z,99444.52
2019-03-13T02:12:24.508Z,99438.09
2019-03-13T02:14:31.200Z,99434.61
2019-03-13T02:16:37.875Z,99420.28
2019-03-13T02:18:44.599Z,99426.35
2019-03-13T02:20:51.285Z,99421.98
2019-03-13T02:22:57.951Z,99419.88
2019-03-13T02:25:06.819Z,99419.45
2019-03-13T02:27:13.529Z,99412.50
2019-03-13T02:29:21.266Z,99415.64
2019-03-13T02:31:27.934Z,99411.68
2019-03-13T02:33:34.717Z,99410.79
2019-03-13T02:35:41.363Z,99405.67
2019-03-13T02:37:48.057Z,99401.16
2019-03-13T02:39:54.734Z,99399.59
2019-03-13T02:42:01.403Z,99388.39
2019-03-13T02:44:08.073Z,99388.89
2019-03-13T02:46:14.838Z,99387.93
2019-03-13T02:48:21.497Z,99380.97
2019-03-13T02:50:28.319Z,99377.36
2019-03-13T02:52:35.006Z,99380.36
2019-03-13T02:54:41.683Z,99383.77
2019-03-13T02:56:48.347Z,99382.67
2019-03-13T02:58:55.227Z,99385.74
2019-03-13T03:01:12.747Z,99389.57
2019-03-13T03:03:21.061Z,99385.68
2019-03-13T03:05:27.808Z,99382.61
2019-03-13T03:07:34.546Z,99386.50
2019-03-13T03:09:41.215Z,99386.09
2019-03-13T03:11:48.001Z,99382.27
2019-03-13T03:13:54.717Z,99382.73
2019-03-13T03:16:01.387Z,99374.61
2019-03-13T03:18:09.077Z,99373.41
2019-03-13T03:20:21.080Z,99377.08
2019-03-13T03:22:27.756Z,99373.06
2019-03-13T03:24:34.463Z,99368.48
2019-03-13T03:26:41.112Z,99369.08
2019-03-13T03:28:47.859Z,99361.01
2019-03-13T03:30:54.970Z,99360.56
2019-03-13T03:33:01.642Z,99364.99
2019-03-13T03:35:08.302Z,99355.56
2019-03-13T03:37:14.994Z,99352.20
2019-03-13T03:39:21.745Z,99349.79
2019-03-13T03:41:28.801Z,99350.27
2019-03-13T03:43:40.586Z,99339.08
2019-03-13T03:45:43.863Z,99342.91
2019-03-13T03:47:50.544Z,99340.85
2019-03-13T03:49:57.215Z,99343.09
2019-03-13T03:52:03.889Z,99334.48
2019-03-13T03:54:11.765Z,99333.25
2019-03-13T03:56:18.529Z,99325.98
2019-03-13T03:58:29.647Z,99323.81
2019-03-13T04:00:36.784Z,99312.18
2019-03-13T04:02:43.853Z,99312.18
2019-03-13T04:04:50.514Z,99307.05
2019-03-13T04:06:57.182Z,99300.97
2019-03-13T04:09:04.960Z,99300.11
2019-03-13T04:11:11.697Z,99287.13
2019-03-13T04:13:18.453Z,99287.59
2019-03-13T04:15:25.219Z,99292.08
2019-03-13T04:17:31.950Z,99284.47
2019-03-13T04:19:38.618Z,99280.28
2019-03-13T04:21:45.311Z,99274.69
2019-03-13T04:23:51.979Z,99285.08
2019-03-13T04:25:58.648Z,99274.69
2019-03-13T04:28:05.731Z,99268.31
2019-03-13T04:30:13.809Z,99267.66
2019-03-13T04:32:20.549Z,99265.12
2019-03-13T04:34:27.304Z,99266.03
2019-03-13T04:36:33.967Z,99258.81
2019-03-13T04:38:40.640Z,99251.08
2019-03-13T04:40:47.316Z,99239.61
2019-03-13T04:42:53.977Z,99237.15
2019-03-13T04:45:00.632Z,99241.69
2019-03-13T04:47:07.313Z,99228.74
2019-03-13T04:49:14.057Z,99217.98
2019-03-13T04:51:20.715Z,99228.92
2019-03-13T04:53:27.426Z,99226.97
2019-03-13T04:55:34.144Z,99213.24
2019-03-13T04:57:40.811Z,99213.31
2019-03-13T04:59:47.570Z,99204.73
2019-03-13T05:01:54.230Z,99204.79
2019-03-13T05:04:00.900Z,99201.00
2019-03-13T05:06:12.178Z,99197.56
2019-03-13T05:08:23.261Z,99193.32
2019-03-13T05:10:29.932Z,99199.45
2019-03-13T05:12:36.731Z,99191.30
2019-03-13T05:14:43.396Z,99196.59
2019-03-13T05:16:50.168Z,99193.63
2019-03-13T05:18:56.841Z,99188.09
2019-03-13T05:21:03.502Z,99186.94
2019-03-13T05:23:10.165Z,99179.66
2019-03-13T05:25:19.217Z,99176.73
2019-03-13T05:27:25.580Z,99170.77
2019-03-13T05:29:32.234Z,99167.90
2019-03-13T05:31:39.002Z,99170.70
2019-03-13T05:33:45.868Z,99163.80
2019-03-13T05:35:52.610Z,99169.61
2019-03-13T05:37:59.300Z,99171.06
2019-03-13T05:40:10.713Z,99163.32
2019-03-13T05:42:18.593Z,99158.35
2019-03-13T05:44:25.345Z,99158.51
2019-03-13T05:46:32.077Z,99156.52
2019-03-13T05:48:38.745Z,99164.48
2019-03-13T05:50:45.444Z,99165.60
2019-03-13T05:52:52.602Z,99161.73
2019-03-13T05:54:59.269Z,99164.39
2019-03-13T05:57:05.961Z,99158.82
2019-03-13T05:59:12.699Z,99157.56
2019-03-13T06:01:19.410Z,99151.66
2019-03-13T06:03:27.201Z,99152.69
2019-03-13T06:05:33.935Z,99143.70
2019-03-13T06:07:40.604Z,99140.03
2019-03-13T06:09:47.294Z,99135.88
2019-03-13T06:11:54.024Z,99141.19
2019-03-13T06:14:00.755Z,99143.83
2019-03-13T06:16:07.441Z,99141.53
2019-03-13T06:18:14.180Z,99136.95
2019-03-13T06:20:20.903Z,99140.74
2019-03-13T06:22:27.604Z,99140.16
2019-03-13T06:24:34.261Z,99135.27
2019-03-13T06:26:40.912Z,99132.44
2019-03-13T06:28:47.607Z,99123.96
2019-03-13T06:30:54.261Z,99118.08
2019-03-13T06:33:00.918Z,99119.96
2019-03-13T06:35:09.879Z,99119.09
2019-03-13T06:37:16.546Z,99119.71
2019-03-13T06:39:23.207Z,99120.05
2019-03-13T06:41:29.893Z,99116.25
2019-03-13T06:43:36.548Z,99119.36
2019-03-13T06:45:43.209Z,99118.13
2019-03-13T06:47:49.913Z,99118.38
2019-03-13T06:49:56.566Z,99107.64
2019-03-13T06:52:03.233Z,99110.74
2019-03-13T06:54:09.928Z,99110.80
2019-03-13T06:56:18.005Z,99109.56
2019-03-13T06:58:26.380Z,99112.18
2019-03-13T07:00:35.768Z,99096.44
2019-03-13T07:02:44.065Z,99102.59
2019-03-13T07:05:04.725Z,99104.51
2019-03-13T07:07:13.041Z,99097.17
2019-03-13T07:09:21.347Z,99097.22
2019-03-13T07:11:39.588Z,99095.09
2019-03-13T07:13:47.916Z,99093.91
2019-03-13T07:15:56.211Z,99085.58
2019-03-13T07:18:20.566Z,99085.09
2019-03-13T07:20:31.910Z,99094.94
2019-03-13T07:22:40.219Z,99082.94
2019-03-13T07:24:48.513Z,99079.61
2019-03-13T07:26:54.950Z,99075.42
2019-03-13T07:29:15.159Z,99079.16
2019-03-13T07:31:38.834Z,99068.38
2019-03-13T07:33:49.926Z,99065.41
2019-03-13T07:35:58.220Z,99067.61
2019-03-13T07:38:09.232Z,99066.59
2019-03-13T07:40:17.555Z,99067.80
2019-03-13T07:42:25.942Z,99066.89
2019-03-13T07:44:32.368Z,99060.30
2019-03-13T07:46:49.809Z,99060.47
2019-03-13T07:49:09.918Z,99063.55
2019-03-13T07:51:20.926Z,99062.50
2019-03-13T07:53:27.373Z,99064.63
2019-03-13T07:55:38.391Z,99059.31
2019-03-13T07:57:52.553Z,99067.66
2019-03-13T08:00:00.880Z,99067.58
2019-03-13T08:02:09.203Z,99078.28
2019-03-13T08:04:23.314Z,99076.71
2019-03-13T08:06:31.645Z,99084.13
2019-03-13T08:08:46.125Z,99087.65
2019-03-13T08:11:09.498Z,99091.60
2019-03-13T08:13:24.715Z,99087.25
2019-03-13T08:15:33.003Z,99085.41
2019-03-13T08:17:41.336Z,99087.25
2019-03-13T08:19:49.701Z,99079.70
2019-03-13T08:22:14.204Z,99074.11
2019-03-13T08:24:22.495Z,99077.81
2019-03-13T08:26:36.801Z,99073.44
2019-03-13T08:28:43.229Z,99078.03
2019-03-13T08:31:09.765Z,99069.89
2019-03-13T08:33:21.914Z,99066.83
2019-03-13T08:35:36.446Z,99072.13
2019-03-13T08:38:00.983Z,99070.81
2019-03-13T08:40:10.602Z,99063.67
2019-03-13T08:42:35.327Z,99072.70
2019-03-13T08:44:59.589Z,99071.14
2019-03-13T08:47:24.006Z,99070.79
2019-03-13T08:49:32.307Z,99067.98
2019-03-13T08:51:40.594Z,99068.34
2019-03-13T08:53:56.369Z,99060.05
2019-03-13T08:56:14.110Z,99065.27
2019-03-13T08:58:34.326Z,99061.45
2019-03-13T09:00:50.043Z,99055.30
2019-03-13T09:03:16.402Z,99058.02
2019-03-13T09:05:25.798Z,99052.45
2019-03-13T09:07:43.365Z,99053.41
2019-03-13T09:10:07.643Z,99044.12
2019-03-13T09:12:15.943Z,99044.17
2019-03-13T09:14:27.218Z,99043.24
2019-03-13T09:16:35.518Z,99058.21
2019-03-13T09:18:46.831Z,99048.66
2019-03-13T09:21:01.204Z,99054.06
2019-03-13T09:23:18.825Z,99071.77
2019-03-13T09:25:43.440Z,99061.48
2019-03-13T09:28:01.976Z,99060.28
2019-03-13T09:30:15.099Z,99061.66
2019-03-13T09:32:39.836Z,99063.85
2019-03-13T09:34:48.173Z,99069.08
2019-03-13T09:37:08.642Z,99062.22
2019-03-13T09:39:18.028Z,99063.91
2019-03-13T09:41:29.111Z,99072.20
2019-03-13T09:43:53.627Z,99062.13
2019-03-13T09:46:18.200Z,99066.53
2019-03-13T09:48:32.746Z,99074.06
2019-03-13T09:50:41.867Z,99071.33
2019-03-13T09:52:51.972Z,99075.14
2019-03-13T09:55:16.214Z,99072.13
2019-03-13T09:57:33.280Z,99066.83
2019-03-13T09:59:50.324Z,99072.02
2019-03-13T10:02:10.718Z,99073.42
2019-03-13T10:04:25.264Z,99080.92
2019-03-13T10:06:49.945Z,99076.11
2019-03-13T10:09:04.436Z,99077.81
2019-03-13T10:11:17.269Z,99082.17
2019-03-13T10:13:34.586Z,99081.31
2019-03-13T10:15:45.849Z,99079.41
2019-03-13T10:17:58.048Z,99082.38
2019-03-13T10:20:07.592Z,99079.51
2019-03-13T10:22:14.032Z,99080.89
2019-03-13T10:24:32.725Z,99071.28
2019-03-13T10:26:41.023Z,99071.78
2019-03-13T10:28:49.346Z,99074.49
2019-03-13T10:31:12.636Z,99066.24
2019-03-13T10:33:20.926Z,99064.59
2019-03-13T10:35:45.545Z,99060.66
2019-03-13T10:37:57.896Z,99064.19
2019-03-13T10:40:24.276Z,99068.55
2019-03-13T10:42:30.731Z,99067.69
2019-03-13T10:44:55.036Z,99072.06
2019-03-13T10:47:12.207Z,99072.42
2019-03-13T10:49:20.541Z,99072.78
2019-03-13T10:51:45.182Z,99075.88
2019-03-13T10:53:56.528Z,99068.49
2019-03-13T10:56:04.852Z,99073.76
2019-03-13T10:58:13.249Z,99073.77
2019-03-13T11:00:21.828Z,99064.97
2019-03-13T11:02:42.481Z,99061.97
2019-03-13T11:04:50.777Z,99054.97
2019-03-13T11:06:59.081Z,99059.73
2019-03-13T11:09:07.350Z,99059.66
2019-03-13T11:11:17.224Z,99053.12
2019-03-13T11:13:43.792Z,99056.23
2019-03-13T11:16:08.160Z,99060.62
2019-03-13T11:18:28.467Z,99064.54
2019-03-13T11:20:34.883Z,99071.46
2019-03-13T11:22:53.394Z,99078.34
2019-03-13T11:25:07.576Z,99073.91
2019-03-13T11:27:32.177Z,99080.41
2019-03-13T11:29:52.757Z,99073.29
2019-03-13T11:32:01.097Z,99072.78
2019-03-13T11:34:15.677Z,99079.64
2019-03-13T11:36:40.235Z,99079.41
2019-03-13T11:38:51.256Z,99090.55
2019-03-13T11:40:59.555Z,99097.91
2019-03-13T11:43:15.045Z,99100.05
2019-03-13T11:45:35.537Z,99103.02
2019-03-13T11:47:43.862Z,99109.15
2019-03-13T11:49:57.979Z,99119.97
2019-03-13T11:52:09.461Z,99123.87
2019-03-13T11:54:32.785Z,99125.13
2019-03-13T11:56:39.232Z,99116.37
2019-03-13T11:58:53.272Z,99111.53
2019-03-13T12:01:01.556Z,99117.16
2019-03-13T12:03:18.895Z,99123.66
2019-03-13T12:05:32.965Z,99117.13
2019-03-13T12:07:52.911Z,99114.81
2019-03-13T12:09:59.360Z,99111.75
2019-03-13T12:12:13.761Z,99107.80
2019-03-13T12:14:31.112Z,99111.80
2019-03-13T12:16:39.497Z,99106.59
2019-03-13T12:18:53.564Z,99111.34
2019-03-13T12:21:18.016Z,99104.02
2019-03-13T12:23:24.460Z,99103.20
2019-03-13T12:25:32.762Z,99104.84
2019-03-13T12:27:44.015Z,99104.81
2019-03-13T12:29:50.474Z,99103.44
2019-03-13T12:32:14.973Z,99098.59
2019-03-13T12:34:24.139Z,99095.92
2019-03-13T12:36:42.039Z,99103.76
2019-03-13T12:39:06.604Z,99102.60
2019-03-13T12:41:31.910Z,99099.58
2019-03-13T12:43:46.437Z,99100.13
2019-03-13T12:46:00.695Z,99097.88
2019-03-13T12:48:16.170Z,99094.36
2019-03-13T12:50:19.755Z,99094.27
2019-03-13T15:15:25.629Z,99068.22
2019-03-13T15:17:32.294Z,99066.46
2019-03-13T15:23:07.691Z,99071.28
2019-03-13T15:25:15.866Z,99065.14
2019-03-13T15:27:22.591Z,99070.34
2019-03-13T15:29:29.273Z,99070.77
2019-03-13T15:31:35.936Z,99079.50
2019-03-13T15:33:42.597Z,99076.86
2019-03-13T15:35:49.348Z,99079.04
2019-03-13T15:37:56.162Z,99079.04
2019-03-13T15:40:03.409Z,99079.01
2019-03-13T15:42:10.090Z,99079.84
2019-03-13T15:44:16.826Z,99085.07
2019-03-13T15:46:23.560Z,99085.89
2019-03-13T15:48:30.313Z,99085.42
2019-03-13T15:50:36.911Z,99086.69
2019-03-13T15:52:43.565Z,99083.14
2019-03-13T15:54:51.329Z,99081.33
2019-03-13T15:56:58.082Z,99084.80
2019-03-13T15:59:04.736Z,99089.99
2019-03-13T16:01:11.434Z,99091.23
2019-03-13T16:03:18.130Z,99095.94
2019-03-13T16:05:24.915Z,99100.61
2019-03-13T16:07:31.596Z,99104.45
2019-03-13T16:09:39.725Z,99106.09
2019-03-13T16:11:47.816Z,99104.28
2019-03-13T16:13:54.568Z,99098.55
2019-03-13T16:16:01.689Z,99108.56
2019-03-13T16:18:10.098Z,99107.22
2019-03-13T16:20:18.174Z,99102.00
2019-03-13T16:22:26.179Z,99105.47
2019-03-13T16:24:32.902Z,99108.97
2019-03-13T16:26:39.878Z,99108.16
2019-03-13T16:28:46.611Z,99110.36
2019-03-13T16:30:54.940Z,99109.48
2019-03-13T16:33:02.846Z,99107.68
2019-03-13T16:35:11.687Z,99112.80
2019-03-13T16:37:19.617Z,99118.72
2019-03-13T16:39:26.629Z,99117.66
2019-03-13T16:41:33.226Z,99114.88
2019-03-13T16:43:40.042Z,99117.75
2019-03-13T16:45:46.804Z,99126.74
2019-03-13T16:49:05.380Z,99124.87
2019-03-13T16:51:12.309Z,99122.55
2019-03-13T16:53:18.895Z,99123.36
2019-03-13T16:57:31.039Z,99113.39
2019-03-13T16:59:37.692Z,99120.23
2019-03-13T17:01:44.417Z,99119.72
2019-03-13T17:03:51.123Z,99118.33
2019-03-13T17:06:00.452Z,99122.98
2019-03-13T17:08:07.184Z,99125.60
2019-03-13T17:10:17.505Z,99126.52
2019-03-13T17:12:24.922Z,99124.35
2019-03-13T17:14:31.589Z,99125.72
2019-03-13T17:16:38.264Z,99133.22
2019-03-13T17:18:48.887Z,99136.84
2019-03-13T17:20:56.953Z,99131.27
2019-03-13T17:23:03.720Z,99125.19
2019-03-13T17:25:14.913Z,99131.36
2019-03-13T17:27:21.610Z,99133.61
2019-03-13T17:29:28.264Z,99134.97
2019-03-13T17:31:34.918Z,99139.43
2019-03-13T17:33:42.347Z,99139.03
2019-03-13T17:35:49.050Z,99142.53
2019-03-13T17:37:55.786Z,99138.17
2019-03-13T17:40:02.520Z,99139.97
2019-03-13T17:42:10.610Z,99140.41
2019-03-13T17:44:18.736Z,99137.36
2019-03-13T17:46:25.463Z,99139.50
2019-03-13T17:48:32.238Z,99139.03
2019-03-13T17:50:38.960Z,99136.81
2019-03-13T17:52:45.680Z,99140.28
2019-03-13T17:54:52.370Z,99136.27
2019-03-13T17:57:00.895Z,99139.27
2019-03-13T17:59:09.108Z,99136.59
2019-03-13T18:01:17.086Z,99135.72
2019-03-13T18:03:25.148Z,99134.38
2019-03-13T18:05:31.809Z,99130.03
2019-03-13T18:07:38.648Z,99130.03
2019-03-13T18:09:46.847Z,99135.32
2019-03-13T18:11:55.043Z,99134.92
2019-03-13T18:14:02.932Z,99138.87
2019-03-13T18:16:09.670Z,99138.52
2019-03-13T18:18:16.400Z,99131.20
2019-03-13T18:20:24.757Z,99137.80
2019-03-13T18:22:31.490Z,99131.27
2019-03-13T18:24:38.199Z,99130.02
2019-03-13T18:26:44.972Z,99126.56
2019-03-13T18:28:51.700Z,99125.31
2019-03-13T18:31:01.681Z,99123.56
2019-03-13T18:33:07.293Z,99113.09
2019-03-13T18:35:15.631Z,99114.45
2019-03-13T18:37:22.356Z,99117.98
2019-03-13T18:39:29.037Z,99120.16
2019-03-13T18:41:35.696Z,99117.98
2019-03-13T18:43:42.441Z,99124.98
2019-03-13T18:45:49.191Z,99119.26
2019-03-13T18:47:56.232Z,99119.69
2019-03-13T18:50:02.962Z,99118.78
2019-03-13T18:52:10.024Z,99113.45
2019-03-13T18:54:16.761Z,99113.83
2019-03-13T18:56:24.828Z,99111.59
2019-03-13T18:58:34.589Z,99107.54
2019-03-13T19:00:40.048Z,99113.12
2019-03-13T19:02:46.881Z,99116.95
2019-03-13T19:04:53.578Z,99110.33
2019-03-13T19:07:00.406Z,99111.52
2019-03-13T19:09:07.709Z,99114.59
2019-03-13T19:11:15.922Z,99105.36
2019-03-13T19:13:22.593Z,99100.52
2019-03-13T19:15:30.423Z,99099.50
2019-03-13T19:17:37.102Z,99101.20
2019-03-13T19:19:43.839Z,99104.20
2019-03-13T19:21:50.499Z,99101.92
2019-03-13T19:23:58.638Z,99099.19
2019-03-13T19:26:05.362Z,99100.02
2019-03-13T19:28:12.108Z,99101.26
2019-03-13T19:30:33.117Z,99095.55
2019-03-13T19:32:39.844Z,99101.56
2019-03-13T19:34:46.578Z,99105.82
2019-03-13T19:36:53.440Z,99095.73
2019-03-13T19:39:04.956Z,99103.52
2019-03-13T19:41:13.510Z,99104.36
2019-03-13T19:43:21.097Z,99105.97
2019-03-13T19:45:40.204Z,99101.10
2019-03-13T19:47:47.423Z,99102.31
2019-03-13T19:49:54.173Z,99096.08
2019-03-13T19:52:02.431Z,99096.05
2019-03-13T19:54:09.105Z,99092.48
2019-03-13T19:56:18.964Z,99095.03
2019-03-13T19:58:26.689Z,99093.23
2019-03-13T20:00:33.520Z,99091.05
2019-03-13T20:02:40.295Z,99087.94
2019-03-13T20:04:47.759Z,99089.67
2019-03-13T20:06:54.734Z,99087.88
2019-03-13T20:09:01.434Z,99087.41
2019-03-13T20:11:13.598Z,99088.23
2019-03-13T20:13:22.831Z,99092.11
2019-03-13T20:15:37.294Z,99087.70
2019-03-13T20:17:45.026Z,99084.25
2019-03-13T20:19:53.227Z,99085.09
2019-03-13T20:22:00.071Z,99078.03
2019-03-13T20:24:07.904Z,99079.73
2019-03-13T20:26:14.644Z,99074.89
2019-03-13T20:28:21.408Z,99069.67
2019-03-13T20:30:30.508Z,99070.03
2019-03-13T20:32:39.039Z,99072.15
2019-03-13T20:34:47.402Z,99062.45
2019-03-13T20:36:54.132Z,99059.30
2019-03-13T20:39:03.521Z,99062.73
2019-03-13T20:41:13.287Z,99059.59
2019-03-13T20:43:23.129Z,99055.25
2019-03-13T20:45:33.034Z,99054.72
2019-03-13T20:47:39.794Z,99059.48
2019-03-13T20:49:51.291Z,99057.19
2019-03-13T20:51:58.019Z,99054.44
2019-03-13T20:54:04.841Z,99051.67
2019-03-13T20:56:11.572Z,99053.67
2019-03-13T20:58:18.240Z,99048.72
2019-03-13T21:00:30.711Z,99056.01
2019-03-13T21:02:42.004Z,99051.59
2019-03-13T21:04:48.777Z,99045.42
2019-03-13T21:06:55.539Z,99041.09
2019-03-13T21:09:02.281Z,99040.21
2019-03-13T21:11:10.473Z,99035.38
2019-03-13T21:13:17.160Z,99037.95
2019-03-13T21:15:30.042Z,99039.17
2019-03-13T21:17:36.819Z,99030.50
2019-03-13T21:19:46.432Z,99034.00
2019-03-13T21:21:53.094Z,99034.88
2019-03-13T21:24:01.034Z,99036.10
2019-03-13T21:26:07.726Z,99034.69
2019-03-13T21:28:16.047Z,99028.47
2019-03-13T21:30:29.416Z,99030.57
2019-03-13T21:32:36.102Z,99030.91
2019-03-13T21:34:44.328Z,99032.18
2019-03-13T21:36:50.988Z,99035.59
2019-03-13T21:38:57.751Z,99038.16
2019-03-13T21:41:04.496Z,99030.75
2019-03-13T21:43:12.132Z,99028.95
2019-03-13T21:45:22.678Z,99030.17
2019-03-13T21:47:28.759Z,99028.83
2019-03-13T21:49:35.923Z,99032.23
2019-03-13T21:51:42.609Z,99028.23
2019-03-13T21:53:49.346Z,99021.59
2019-03-13T21:55:56.189Z,99018.45
2019-03-13T21:58:04.515Z,99012.31
2019-03-13T22:00:24.181Z,99013.61
2019-03-13T22:02:33.187Z,99003.15
2019-03-13T22:04:39.512Z,99007.98
2019-03-13T22:06:46.179Z,99010.55
2019-03-13T22:08:52.930Z,99007.94
2019-03-13T22:10:59.635Z,99009.23
2019-03-13T22:13:06.479Z,99007.48
2019-03-13T22:15:23.045Z,99004.03
2019-03-13T22:17:29.799Z,99012.23
2019-03-13T22:19:36.458Z,99009.54
2019-03-13T22:21:43.128Z,99002.94
2019-03-13T22:23:49.811Z,99012.02
2019-03-13T22:25:56.561Z,99008.48
2019-03-13T22:28:03.210Z,99006.34
2019-03-13T22:30:19.230Z,99007.65
2019-03-13T22:32:26.637Z,99003.32
2019-03-13T22:34:33.307Z,98998.95
2019-03-13T22:36:40.076Z,98995.03
2019-03-13T22:38:46.817Z,99002.98
2019-03-13T22:40:53.488Z,99000.38
2019-03-13T22:43:00.280Z,98999.95
2019-03-13T22:45:11.138Z,98991.38
2019-03-13T22:47:17.932Z,98991.38
2019-03-13T22:49:24.629Z,98986.72
2019-03-13T22:51:31.287Z,98991.97
2019-03-13T22:53:37.949Z,98991.63
2019-03-13T22:55:44.660Z,98987.42
2019-03-13T22:57:51.315Z,98988.73
2019-03-13T22:59:58.050Z,98981.79
2019-03-13T23:02:05.711Z,98980.65
2019-03-13T23:04:12.442Z,98981.23
2019-03-13T23:06:19.188Z,98978.24
2019-03-13T23:08:25.874Z,98973.14
2019-03-13T23:10:34.742Z,98963.59
2019-03-13T23:12:41.402Z,98971.87
2019-03-13T23:14:48.154Z,98959.38
2019-03-13T23:16:54.907Z,98957.27
2019-03-13T23:19:01.578Z,98967.62
2019-03-13T23:21:09.863Z,98961.98
2019-03-13T23:23:16.605Z,98956.84
2019-03-13T23:25:23.328Z,98962.06
2019-03-13T23:27:30.034Z,98952.97
2019-03-13T23:29:36.691Z,98953.58
2019-03-13T23:31:43.496Z,98958.34
2019-03-13T23:33:50.971Z,98950.05
2019-03-13T23:35:58.645Z,98954.35
2019-03-13T23:38:05.816Z,98943.31
2019-03-13T23:40:12.511Z,98944.16
2019-03-13T23:42:19.245Z,98939.71
2019-03-13T23:44:25.931Z,98940.56
2019-03-13T23:46:32.624Z,98942.20
2019-03-13T23:48:39.281Z,98943.52
2019-03-13T23:50:45.957Z,98943.94
2019-03-13T23:52:52.677Z,98942.09
2019-03-13T23:55:17.134Z,98944.16
2019-03-13T23:57:23.558Z,98941.55
2019-03-13T23:59:29.970Z,98947.11
